Time;durP1;ratioP1;P1;durP2;ratioP2;P2;SDS_P1;SDS_P2;PMS_P1;PMS_P2;Temp;Humidity;BMP_temperature;BMP_pressure;BME280_temperature;BME280_humidity;BME280_pressure;Samples;Min_cycle;Max_cycle;Signal;HPM_P1;HPM_P2
2022/05/11 00:01:43;;;;;;;12.82;9.75;;;;;;;13.47;84.56;97477.13;4993692;28;20590;-66
2022/05/11 00:04:10;;;;;;;11.68;8.77;;;;;;;13.43;84.86;97476.03;5004605;28;20030;-66
2022/05/11 00:06:38;;;;;;;11.68;9.45;;;;;;;13.49;84.76;97477.72;4985643;28;20046;-66
2022/05/11 00:09:08;;;;;;;13.18;9.63;;;;;;;13.46;84.66;97468.19;4993365;28;20512;-66
2022/05/11 00:11:36;;;;;;;12.25;9.57;;;;;;;13.48;84.70;97462.47;4990119;28;20042;-66
2022/05/11 00:14:04;;;;;;;12.27;9.68;;;;;;;13.56;84.27;97464.66;5001841;28;20038;-66
2022/05/11 00:16:31;;;;;;;10.98;8.43;;;;;;;13.55;84.31;97460.31;5007922;28;20054;-66
2022/05/11 00:18:57;;;;;;;11.73;8.63;;;;;;;13.58;84.01;97456.25;5002264;28;20460;-66
2022/05/11 00:21:26;;;;;;;11.23;8.52;;;;;;;13.42;84.68;97455.38;5020469;28;20037;-66
2022/05/11 00:23:53;;;;;;;11.57;9.10;;;;;;;13.45;83.94;97457.56;5009479;28;20493;-66
2022/05/11 00:26:20;;;;;;;12.95;9.27;;;;;;;13.47;84.04;97456.19;5008264;28;20050;-65
2022/05/11 00:28:47;;;;;;;11.50;8.73;;;;;;;13.44;84.18;97455.91;5007887;28;20053;-66
2022/05/11 00:31:14;;;;;;;12.10;9.55;;;;;;;13.41;84.37;97451.81;4992228;28;20057;-66
2022/05/11 00:33:41;;;;;;;10.50;8.32;;;;;;;13.54;83.39;97453.25;5006435;28;20081;-66
2022/05/11 00:36:11;;;;;;;11.23;8.90;;;;;;;13.58;83.03;97446.19;5004665;28;20046;-66
2022/05/11 00:38:38;;;;;;;10.57;8.15;;;;;;;13.61;82.99;97445.66;5008500;28;20042;-66
2022/05/11 00:41:05;;;;;;;11.50;9.05;;;;;;;13.44;83.79;97451.28;5006731;28;20068;-66
2022/05/11 00:43:52;;;;;;;11.27;8.13;;;;;;;13.41;83.86;97449.09;5000937;28;20049;-66
2022/05/11 00:46:26;;;;;;;11.25;8.18;;;;;;;13.52;83.43;97439.09;4996966;28;20119;-66
2022/05/11 00:51:49;;;;;;;12.00;8.35;;;;;;;13.53;82.85;97440.75;5006489;28;20115;-66
2022/05/11 00:54:19;;;;;;;10.52;8.35;;;;;;;13.64;82.37;97436.94;4998678;28;20046;-66
2022/05/11 00:56:53;;;;;;;11.82;7.70;;;;;;;13.68;81.69;97433.69;4988893;28;20130;-66
2022/05/11 00:59:31;;;;;;;11.25;8.02;;;;;;;13.45;83.51;97433.09;4992775;28;20049;-66
2022/05/11 01:02:04;;;;;;;15.38;8.20;;;;;;;13.36;83.29;97425.44;5008120;28;20064;-66
2022/05/11 01:04:36;;;;;;;10.35;7.95;;;;;;;13.28;83.64;97425.97;5006191;28;20091;-66
2022/05/11 01:07:04;;;;;;;9.93;7.60;;;;;;;13.30;83.30;97423.00;5007373;28;20049;-66
2022/05/11 01:09:31;;;;;;;13.95;8.32;;;;;;;13.13;83.99;97434.91;5003278;28;20042;-66
2022/05/11 01:12:00;;;;;;;10.15;7.85;;;;;;;12.99;84.20;97429.16;5005561;28;20057;-66
2022/05/11 01:14:31;;;;;;;11.10;8.77;;;;;;;12.90;84.78;97431.53;4990194;28;20053;-66
2022/05/11 01:16:58;;;;;;;11.00;7.90;;;;;;;12.80;85.17;97426.91;4993479;28;20050;-66
2022/05/11 01:19:30;;;;;;;10.75;8.02;;;;;;;12.84;84.75;97429.91;5011842;28;20117;-65
2022/05/11 01:22:13;;;;;;;12.13;8.18;;;;;;;12.75;84.75;97427.69;5016867;28;20152;-66
2022/05/11 01:24:43;;;;;;;11.65;7.90;;;;;;;12.82;84.42;97427.44;4993060;28;20112;-65
2022/05/11 01:27:30;;;;;;;9.50;7.53;;;;;;;12.76;84.46;97428.53;5002297;28;20044;-66
2022/05/11 01:30:17;;;;;;;9.65;7.05;;;;;;;12.95;83.29;97419.88;5006490;28;20046;-65
2022/05/11 01:32:46;;;;;;;10.40;7.97;;;;;;;12.83;83.63;97423.63;5006697;28;20045;-66
2022/05/11 01:35:27;;;;;;;11.57;7.65;;;;;;;12.67;84.36;97425.47;5008238;28;20046;-66
2022/05/11 01:38:00;;;;;;;10.68;7.00;;;;;;;12.53;85.24;97427.03;4991319;28;20045;-66
2022/05/11 01:40:27;;;;;;;9.40;7.35;;;;;;;12.48;85.39;97416.97;5005143;28;20072;-65
2022/05/11 01:42:53;;;;;;;11.95;7.85;;;;;;;12.51;84.93;97421.03;5006350;28;20042;-66
2022/05/11 01:45:20;;;;;;;9.45;7.18;;;;;;;12.55;84.68;97417.56;4996494;28;20044;-66
2022/05/11 01:47:46;;;;;;;9.73;8.10;;;;;;;12.63;84.17;97418.13;5004684;28;20128;-66
2022/05/11 01:50:13;;;;;;;11.20;6.97;;;;;;;12.63;84.08;97424.38;5011258;28;20064;-66
2022/05/11 01:52:39;;;;;;;11.20;7.85;;;;;;;12.56;84.44;97419.19;5013404;28;20115;-65
2022/05/11 01:55:06;;;;;;;9.75;7.38;;;;;;;12.48;84.59;97415.06;5006620;28;20054;-65
2022/05/11 01:57:35;;;;;;;9.18;7.72;;;;;;;12.50;84.51;97409.38;5001822;28;20164;-66
2022/05/11 02:00:04;;;;;;;10.45;7.47;;;;;;;12.52;84.54;97418.06;4996170;28;20537;-66
2022/05/11 02:02:38;;;;;;;9.63;6.75;;;;;;;12.49;84.66;97413.16;4998241;28;20590;-65
2022/05/11 02:07:50;;;;;;;10.43;7.60;;;;;;;12.66;83.44;97415.69;5005466;28;20049;-65
2022/05/11 02:10:22;;;;;;;12.40;7.13;;;;;;;12.64;83.66;97417.84;4995945;28;20128;-66
2022/05/11 02:12:49;;;;;;;10.13;6.93;;;;;;;12.71;83.23;97417.59;5000539;28;20054;-65
2022/05/11 02:15:18;;;;;;;8.82;6.75;;;;;;;12.64;83.82;97411.63;5004397;28;20695;-65
2022/05/11 02:17:45;;;;;;;9.68;7.18;;;;;;;12.64;83.50;97414.34;4987795;28;20058;-66
2022/05/11 02:20:14;;;;;;;9.20;6.88;;;;;;;12.61;83.80;97413.75;4995866;28;20042;-65
2022/05/11 02:22:42;;;;;;;11.90;7.60;;;;;;;12.40;84.81;97412.84;5002550;28;20591;-66
2022/05/11 02:25:10;;;;;;;8.25;6.50;;;;;;;12.52;84.07;97415.34;4998485;28;20452;-66
2022/05/11 02:27:38;;;;;;;11.43;7.07;;;;;;;12.52;84.08;97411.81;5004882;28;20045;-65
2022/05/11 02:30:09;;;;;;;9.38;6.53;;;;;;;12.63;83.53;97410.00;5004565;28;20038;-66
2022/05/11 02:32:37;;;;;;;9.80;6.97;;;;;;;12.58;83.88;97414.31;5002259;28;20049;-66
2022/05/11 02:35:14;;;;;;;9.48;6.65;;;;;;;12.52;84.09;97409.91;5005264;28;20048;-66
2022/05/11 02:37:53;;;;;;;9.85;6.60;;;;;;;12.65;83.45;97414.06;4990548;28;20046;-65
2022/05/11 02:40:24;;;;;;;7.85;6.05;;;;;;;12.71;83.12;97412.16;4999057;28;20041;-66
2022/05/11 02:42:52;;;;;;;9.55;6.78;;;;;;;12.77;82.88;97413.03;5004430;28;20041;-66
2022/05/11 02:45:20;;;;;;;12.02;7.10;;;;;;;12.70;83.07;97415.97;5005412;28;20581;-65
2022/05/11 02:47:48;;;;;;;9.05;7.00;;;;;;;12.57;83.95;97412.66;4996310;28;20096;-66
2022/05/11 02:50:19;;;;;;;10.07;6.95;;;;;;;12.49;84.09;97413.16;4992368;28;20521;-66
2022/05/11 02:52:45;;;;;;;13.57;7.05;;;;;;;12.44;84.24;97408.53;4988961;28;20046;-65
2022/05/11 02:55:12;;;;;;;9.57;7.20;;;;;;;12.46;84.32;97411.00;5001932;28;20085;-66
2022/05/11 02:57:39;;;;;;;9.10;7.18;;;;;;;12.50;84.24;97412.09;5004275;28;20042;-66
2022/05/11 03:00:09;;;;;;;8.52;5.97;;;;;;;12.50;84.11;97412.09;5002495;28;20042;-66
2022/05/11 03:02:36;;;;;;;9.75;7.03;;;;;;;12.52;83.87;97403.66;5003855;28;20053;-66
2022/05/11 03:05:04;;;;;;;8.30;6.30;;;;;;;12.39;84.44;97403.09;4994980;28;20138;-65
2022/05/11 03:07:31;;;;;;;8.45;6.38;;;;;;;12.29;84.77;97403.00;4999704;28;20050;-66
2022/05/11 03:09:57;;;;;;;9.02;6.88;;;;;;;12.30;84.65;97407.34;5003683;28;20049;-65
2022/05/11 03:12:24;;;;;;;12.63;6.60;;;;;;;12.38;84.75;97411.47;5002488;28;20104;-65
2022/05/11 03:14:54;;;;;;;9.63;6.50;;;;;;;12.26;84.68;97406.22;5003742;28;20599;-66
2022/05/11 03:17:21;;;;;;;8.88;6.90;;;;;;;12.21;85.01;97404.31;5004650;28;20049;-66
2022/05/11 03:19:47;;;;;;;9.75;6.70;;;;;;;12.21;85.13;97402.41;4992464;28;20050;-66
2022/05/11 03:22:14;;;;;;;8.57;6.90;;;;;;;12.32;84.76;97405.19;5009240;28;20064;-66
2022/05/11 03:24:41;;;;;;;8.80;6.88;;;;;;;12.38;84.45;97401.41;5005961;28;20041;-65
2022/05/11 03:27:07;;;;;;;11.02;7.07;;;;;;;12.31;84.87;97400.84;4994918;28;20521;-65
2022/05/11 03:29:34;;;;;;;9.77;6.78;;;;;;;12.43;84.15;97401.47;5003611;28;20528;-66
2022/05/11 03:34:46;;;;;;;9.00;6.45;;;;;;;12.33;84.44;97402.22;4997921;28;20054;-65
2022/05/11 03:37:15;;;;;;;9.05;6.43;;;;;;;11.99;85.93;97399.81;5006022;28;20107;-66
2022/05/11 03:39:42;;;;;;;8.13;6.35;;;;;;;11.99;86.29;97394.38;5001119;28;20050;-65
2022/05/11 03:42:15;;;;;;;9.07;6.78;;;;;;;11.95;86.38;97395.97;4998125;28;20432;-65
2022/05/11 03:44:42;;;;;;;8.95;6.45;;;;;;;12.04;85.87;97391.69;5005113;28;20060;-66
2022/05/11 03:47:08;;;;;;;8.73;6.35;;;;;;;12.25;85.02;97388.31;5009055;28;20041;-66
2022/05/11 03:49:36;;;;;;;9.02;6.10;;;;;;;12.42;84.37;97386.25;5021193;28;20045;-65
2022/05/11 03:52:03;;;;;;;9.60;6.32;;;;;;;12.59;83.24;97386.06;5014398;28;21107;-65
2022/05/11 03:54:36;;;;;;;10.70;7.07;;;;;;;12.50;83.50;97384.94;5010105;28;20092;-67
2022/05/11 03:57:03;;;;;;;9.27;6.38;;;;;;;12.46;83.97;97387.34;5017384;28;20120;-65
2022/05/11 03:59:30;;;;;;;10.82;6.78;;;;;;;12.41;83.92;97386.50;5014795;28;20048;-65
2022/05/11 04:01:56;;;;;;;9.00;6.45;;;;;;;12.34;84.23;97389.44;5026082;28;20068;-65
2022/05/11 04:04:23;;;;;;;8.38;6.30;;;;;;;12.27;84.79;97392.41;5018314;28;20057;-65
2022/05/11 04:06:50;;;;;;;8.73;6.22;;;;;;;12.39;84.17;97394.09;5009066;28;20042;-65
2022/05/11 04:09:17;;;;;;;9.18;7.03;;;;;;;12.39;84.03;97391.38;5000927;28;20038;-65
2022/05/11 04:11:44;;;;;;;8.38;5.85;;;;;;;12.41;83.83;97395.47;5008637;28;20053;-65
2022/05/11 04:14:10;;;;;;;9.77;6.03;;;;;;;12.42;84.04;97396.31;5004322;28;20654;-65
2022/05/11 04:16:37;;;;;;;12.80;6.70;;;;;;;12.40;84.00;97393.84;4998785;28;20039;-65
2022/05/11 04:19:04;;;;;;;11.05;6.40;;;;;;;12.48;83.80;97390.63;5002808;28;20049;-65
2022/05/11 04:21:30;;;;;;;7.93;6.38;;;;;;;12.67;83.06;97392.88;5005154;28;20048;-65
2022/05/11 04:23:57;;;;;;;10.07;7.13;;;;;;;12.74;82.75;97395.34;5002028;28;20045;-65
2022/05/11 04:26:23;;;;;;;10.63;6.40;;;;;;;12.79;82.37;97392.66;5004374;28;20636;-65
2022/05/11 04:28:50;;;;;;;10.70;6.07;;;;;;;12.85;82.03;97397.03;5010673;28;20424;-65
2022/05/11 04:31:17;;;;;;;10.63;6.00;;;;;;;12.92;82.36;97395.97;4988720;28;20042;-65
2022/05/11 04:33:43;;;;;;;12.50;5.85;;;;;;;12.89;82.08;97386.44;5020763;28;20076;-65
2022/05/11 04:36:10;;;;;;;10.32;6.57;;;;;;;12.98;81.66;97400.34;5004366;28;20045;-65
2022/05/11 04:38:36;;;;;;;10.50;5.43;;;;;;;13.05;81.38;97395.44;5007300;28;20049;-65
2022/05/11 04:41:03;;;;;;;9.77;6.05;;;;;;;13.16;80.90;97392.78;5005746;28;20531;-66
2022/05/11 04:43:30;;;;;;;7.60;5.82;;;;;;;13.19;81.13;97394.97;5003252;28;20670;-65
2022/05/11 04:45:58;;;;;;;8.68;6.18;;;;;;;13.21;80.86;97390.88;5002160;28;20046;-66
2022/05/11 04:48:25;;;;;;;8.57;6.40;;;;;;;13.14;81.33;97393.03;5013481;28;20050;-66
2022/05/11 04:50:58;;;;;;;7.45;5.88;;;;;;;13.18;80.93;97393.31;5006124;28;20053;-65
2022/05/11 04:53:24;;;;;;;9.52;6.28;;;;;;;13.26;80.51;97392.78;5008172;28;20407;-66
2022/05/11 04:55:51;;;;;;;11.00;5.95;;;;;;;13.30;80.66;97395.81;5009083;28;20440;-66
2022/05/11 04:58:18;;;;;;;9.10;6.75;;;;;;;13.35;80.23;97399.31;5011255;28;20053;-66
2022/05/11 05:00:44;;;;;;;8.82;6.20;;;;;;;13.48;79.80;97402.63;5019037;28;20053;-66
2022/05/11 05:03:13;;;;;;;8.00;5.93;;;;;;;13.46;79.94;97396.63;5011496;28;20060;-65
2022/05/11 05:05:40;;;;;;;10.52;6.72;;;;;;;13.48;79.85;97402.63;5016162;28;20042;-66
2022/05/11 05:08:07;;;;;;;10.52;6.68;;;;;;;13.56;79.87;97393.13;4999502;28;20045;-66
2022/05/11 05:10:34;;;;;;;10.18;6.72;;;;;;;13.64;79.04;97398.84;5001759;28;20711;-65
2022/05/11 05:13:03;;;;;;;8.15;5.85;;;;;;;13.76;78.87;97403.22;4999129;28;20100;-65
2022/05/11 05:15:31;;;;;;;8.20;5.97;;;;;;;13.89;78.62;97399.94;5006608;28;20038;-65
2022/05/11 05:17:57;;;;;;;9.88;6.35;;;;;;;14.01;78.27;97404.28;5005882;28;20519;-65
2022/05/11 05:20:24;;;;;;;9.77;6.97;;;;;;;14.08;77.74;97412.19;5007781;28;20050;-66
2022/05/11 05:22:51;;;;;;;8.25;6.00;;;;;;;14.17;77.17;97408.63;5017724;28;20057;-65
2022/05/11 05:25:17;;;;;;;8.60;6.25;;;;;;;14.27;76.77;97406.97;5019918;28;20042;-65
2022/05/11 05:27:44;;;;;;;9.52;6.35;;;;;;;14.35;76.51;97403.69;4995300;28;20052;-66
2022/05/11 05:32:56;;;;;;;7.70;5.60;;;;;;;14.56;75.56;97409.91;4999318;28;20452;-65
2022/05/11 05:35:23;;;;;;;8.68;5.80;;;;;;;14.66;75.37;97411.78;5005915;28;20038;-66
2022/05/11 05:37:49;;;;;;;8.07;5.47;;;;;;;14.77;74.71;97418.03;4996776;28;20058;-66
2022/05/11 05:40:16;;;;;;;7.07;5.72;;;;;;;14.89;74.58;97412.25;5006877;28;20048;-65
2022/05/11 05:42:43;;;;;;;7.97;5.30;;;;;;;14.99;73.88;97416.84;4994599;28;20109;-65
2022/05/11 05:45:11;;;;;;;9.60;5.32;;;;;;;15.12;73.39;97410.00;4986663;28;20077;-66
2022/05/11 05:47:38;;;;;;;7.28;5.15;;;;;;;15.21;72.80;97408.28;5004728;28;20037;-66
2022/05/11 05:50:05;;;;;;;7.53;5.07;;;;;;;15.31;72.59;97406.59;4997629;28;20058;-66
2022/05/11 05:52:34;;;;;;;6.43;4.82;;;;;;;15.45;72.21;97413.03;4996495;28;20073;-66
2022/05/11 05:55:02;;;;;;;6.90;5.38;;;;;;;15.59;71.29;97407.78;5018141;28;20042;-66
2022/05/11 05:57:29;;;;;;;7.32;5.35;;;;;;;15.70;70.78;97410.44;5011877;28;20038;-66
2022/05/11 05:59:55;;;;;;;7.10;4.68;;;;;;;15.81;70.60;97406.50;5013931;28;20115;-65
2022/05/11 06:02:22;;;;;;;8.85;4.90;;;;;;;15.90;70.36;97414.91;4998013;28;20039;-66
2022/05/11 06:04:50;;;;;;;6.03;4.78;;;;;;;15.99;70.24;97415.13;5002626;28;20049;-66
2022/05/11 06:07:19;;;;;;;7.28;4.97;;;;;;;16.07;69.62;97411.78;5004332;28;20042;-65
2022/05/11 06:09:46;;;;;;;7.03;4.68;;;;;;;16.20;69.84;97409.50;5000904;28;20042;-66
2022/05/11 06:12:15;;;;;;;6.97;5.05;;;;;;;16.32;69.62;97406.34;5000843;28;20044;-65
2022/05/11 06:14:42;;;;;;;6.03;4.60;;;;;;;16.47;69.22;97403.47;4995288;28;20052;-66
2022/05/11 06:17:28;;;;;;;8.68;5.07;;;;;;;16.67;68.19;97414.47;5001773;28;20627;-66
2022/05/11 06:19:55;;;;;;;7.53;4.70;;;;;;;16.77;68.10;97414.38;4993413;28;20054;-66
2022/05/11 06:22:21;;;;;;;6.95;4.72;;;;;;;16.94;67.31;97413.88;5003376;28;20402;-66
2022/05/11 06:24:48;;;;;;;13.02;4.43;;;;;;;17.07;67.08;97417.03;5014480;28;20041;-66
2022/05/11 06:27:18;;;;;;;6.82;4.53;;;;;;;17.18;66.62;97415.81;5015118;28;20554;-66
2022/05/11 06:29:52;;;;;;;6.20;3.97;;;;;;;17.28;66.42;97417.56;5014514;28;20076;-66
2022/05/11 06:32:22;;;;;;;6.78;4.35;;;;;;;17.37;65.52;97409.50;5010892;28;20084;-66
2022/05/11 06:34:51;;;;;;;6.20;4.30;;;;;;;17.46;64.99;97410.47;5011735;28;20108;-66
2022/05/11 06:37:18;;;;;;;6.38;4.20;;;;;;;17.54;64.89;97411.72;5007774;28;20088;-66
2022/05/11 06:39:45;;;;;;;5.07;3.60;;;;;;;17.60;64.26;97407.81;5012786;28;20424;-66
2022/05/11 06:42:13;;;;;;;7.82;4.28;;;;;;;17.69;63.81;97413.41;5005023;28;20046;-66
2022/05/11 06:44:40;;;;;;;6.80;4.32;;;;;;;17.84;64.32;97400.59;5002509;28;20049;-66
2022/05/11 06:47:08;;;;;;;6.13;4.15;;;;;;;17.96;63.59;97408.34;4999730;28;20089;-65
2022/05/11 06:49:34;;;;;;;7.15;3.92;;;;;;;18.01;62.37;97405.50;5011559;28;20053;-66
2022/05/11 06:52:02;;;;;;;5.60;4.15;;;;;;;18.13;62.75;97397.66;5010531;28;20049;-66
2022/05/11 06:59:59;;;;;;;6.68;3.50;;;;;;;18.56;60.45;97395.78;4999334;28;20049;-66
2022/05/11 07:02:26;;;;;;;7.93;4.05;;;;;;;18.74;60.08;97395.97;5016836;28;20049;-66
2022/05/11 07:04:53;;;;;;;6.68;3.50;;;;;;;18.83;60.33;97400.47;5010484;28;20060;-66
2022/05/11 07:07:19;;;;;;;5.53;4.00;;;;;;;18.93;59.18;97398.63;5000204;28;20675;-66
2022/05/11 07:09:46;;;;;;;6.07;3.70;;;;;;;19.03;60.02;97392.09;5009672;28;20083;-66
2022/05/11 07:12:20;;;;;;;5.03;3.30;;;;;;;19.13;58.48;97400.16;4995481;28;20130;-65
2022/05/11 07:14:57;;;;;;;5.15;3.47;;;;;;;19.19;58.65;97392.59;4992246;28;20080;-65
2022/05/11 07:17:26;;;;;;;7.50;3.35;;;;;;;19.20;57.61;97399.75;4993864;28;20829;-65
2022/05/11 07:19:54;;;;;;;5.43;3.67;;;;;;;19.32;59.29;97394.50;5004666;28;20069;-65
2022/05/11 07:22:20;;;;;;;6.30;3.80;;;;;;;19.42;58.65;97395.41;5001216;28;20264;-65
2022/05/11 07:24:47;;;;;;;4.40;3.10;;;;;;;19.55;58.89;97390.97;5023008;28;20125;-65
2022/05/11 07:27:13;;;;;;;6.72;4.03;;;;;;;19.64;57.61;97389.13;4993407;28;20475;-65
2022/05/11 07:29:40;;;;;;;4.70;3.53;;;;;;;19.70;57.88;97387.06;5004686;28;20046;-65
2022/05/11 07:32:09;;;;;;;6.90;3.80;;;;;;;19.72;56.36;97388.38;5000771;28;20045;-65
2022/05/11 07:34:35;;;;;;;6.13;3.75;;;;;;;19.87;57.60;97389.94;5005930;28;20050;-65
2022/05/11 07:37:02;;;;;;;4.90;3.42;;;;;;;19.98;56.89;97390.50;5000816;28;20092;-65
2022/05/11 07:39:28;;;;;;;6.65;3.67;;;;;;;20.07;56.12;97387.84;5000040;28;20057;-65
2022/05/11 07:41:55;;;;;;;5.72;3.78;;;;;;;20.14;55.05;97393.69;4994578;28;20046;-65
2022/05/11 07:44:22;;;;;;;6.63;3.53;;;;;;;20.25;54.18;97390.66;4985692;28;20104;-64
2022/05/11 07:46:48;;;;;;;11.60;3.78;;;;;;;20.30;55.26;97385.03;5000601;28;20100;-65
2022/05/11 07:49:18;;;;;;;5.93;3.58;;;;;;;20.37;54.33;97390.06;4999478;28;20049;-65
2022/05/11 07:51:46;;;;;;;6.00;3.80;;;;;;;20.46;54.54;97390.13;5004785;28;20044;-65
2022/05/11 07:54:13;;;;;;;4.65;3.33;;;;;;;20.52;55.79;97380.59;5004575;28;20049;-65
2022/05/11 08:02:09;;;;;;;4.70;3.30;;;;;;;20.83;53.27;97389.94;5004516;28;20049;-62
2022/05/11 08:04:38;;;;;;;8.48;3.53;;;;;;;20.96;54.29;97374.47;5001320;28;20050;-62
2022/05/11 08:07:05;;;;;;;5.05;3.40;;;;;;;21.00;54.04;97373.50;5001218;28;20045;-60
2022/05/11 08:09:31;;;;;;;5.28;3.40;;;;;;;21.22;53.04;97381.97;5002890;28;20059;-60
2022/05/11 08:11:58;;;;;;;5.10;2.72;;;;;;;21.29;50.78;97380.34;5005978;28;20056;-54
2022/05/11 08:14:25;;;;;;;4.95;3.03;;;;;;;21.37;50.22;97373.22;5005255;28;20065;-53
2022/05/11 08:16:52;;;;;;;6.70;3.65;;;;;;;21.41;51.81;97367.88;5000717;28;20104;-56
2022/05/11 08:19:23;;;;;;;5.30;3.72;;;;;;;21.37;51.05;97375.97;4999954;28;20385;-56
2022/05/11 08:21:52;;;;;;;5.07;3.63;;;;;;;21.45;51.61;97366.09;5007775;28;20065;-56
2022/05/11 08:24:19;;;;;;;3.88;2.85;;;;;;;21.55;52.21;97368.50;5022488;28;20045;-56
2022/05/11 08:26:46;;;;;;;5.88;3.50;;;;;;;21.62;52.22;97362.50;5007123;28;20465;-57
2022/05/11 08:33:19;;;;;;;4.85;2.90;;;;;;;21.78;51.58;97365.59;5000833;28;20053;-56
2022/05/11 08:34:50;;;;;;;5.30;3.00;;;;;;;22.00;49.61;97351.94;5007883;28;20053;-54
2022/05/11 08:37:17;;;;;;;5.82;2.85;;;;;;;22.07;47.40;97360.50;5012809;28;20038;-54
2022/05/11 08:39:44;;;;;;;13.32;3.00;;;;;;;22.19;46.31;97357.88;5010774;28;20393;-56
2022/05/11 08:42:12;;;;;;;5.53;2.85;;;;;;;22.40;46.96;97354.41;5006760;28;20046;-54
2022/05/11 08:44:46;;;;;;;8.23;3.50;;;;;;;22.33;46.94;97357.69;5015402;28;20186;-52
2022/05/11 08:47:43;;;;;;;8.48;4.05;;;;;;;22.42;47.22;97352.16;5014647;28;20042;-54
2022/05/11 08:50:26;;;;;;;6.82;3.22;;;;;;;22.43;47.56;97348.25;5005255;28;20053;-55
2022/05/11 08:53:04;;;;;;;5.60;3.30;;;;;;;22.41;48.65;97344.97;5007745;28;20705;-55
2022/05/11 08:55:43;;;;;;;5.60;3.20;;;;;;;22.39;47.61;97343.69;4988067;28;20050;-55
2022/05/11 08:58:31;;;;;;;5.97;4.20;;;;;;;22.51;47.47;97341.06;5006050;28;20052;-55
2022/05/11 09:00:58;;;;;;;8.05;3.65;;;;;;;22.68;48.46;97339.38;5005033;28;20053;-55
2022/05/11 09:03:31;;;;;;;7.70;3.42;;;;;;;22.77;48.09;97336.59;5005915;28;20038;-53
2022/05/11 09:06:00;;;;;;;7.57;3.63;;;;;;;22.85;47.47;97344.00;5005822;28;20374;-54
2022/05/11 09:08:38;;;;;;;4.57;3.38;;;;;;;22.94;47.61;97339.22;5010094;28;20037;-53
2022/05/11 09:11:06;;;;;;;6.55;3.20;;;;;;;23.06;47.88;97338.50;5016829;28;20441;-53
2022/05/11 09:13:37;;;;;;;4.65;3.30;;;;;;;23.07;46.54;97336.56;5005951;28;20500;-50
2022/05/11 09:16:20;;;;;;;4.60;3.35;;;;;;;23.08;46.80;97340.94;5000519;28;20046;-55
2022/05/11 09:18:46;;;;;;;6.68;3.53;;;;;;;23.15;46.33;97341.22;5007595;28;20069;-56
2022/05/11 09:21:19;;;;;;;6.13;3.33;;;;;;;23.28;44.50;97336.53;5002975;28;20045;-54
2022/05/11 09:24:02;;;;;;;5.40;3.60;;;;;;;23.55;45.83;97328.88;5007055;28;20050;-53
2022/05/11 09:26:32;;;;;;;7.18;3.83;;;;;;;23.46;46.17;97333.66;4994360;28;20480;-54
2022/05/11 09:29:16;;;;;;;4.50;3.35;;;;;;;23.46;45.44;97323.44;5007869;28;20045;-56
2022/05/11 09:31:45;;;;;;;5.13;3.15;;;;;;;23.68;46.71;97318.69;4998246;28;20046;-51
2022/05/11 09:34:23;;;;;;;7.25;3.63;;;;;;;23.86;45.05;97324.84;5002154;28;20417;-53
2022/05/11 09:37:19;;;;;;;5.88;4.22;;;;;;;23.90;44.66;97324.97;5003118;28;20048;-52
2022/05/11 09:40:21;;;;;;;7.72;3.50;;;;;;;23.86;45.67;97322.09;5007868;28;20120;-50
2022/05/11 09:42:51;;;;;;;9.13;3.72;;;;;;;23.84;43.51;97313.31;4999434;28;20050;-55
2022/05/11 09:45:38;;;;;;;5.05;3.53;;;;;;;24.10;44.18;97316.94;4995448;28;20046;-54
2022/05/11 09:48:27;;;;;;;6.68;3.60;;;;;;;24.35;43.05;97311.44;5000924;28;20689;-52
2022/05/11 09:50:56;;;;;;;6.45;3.30;;;;;;;24.57;43.63;97309.41;4993586;28;20045;-54
2022/05/11 09:53:33;;;;;;;5.35;3.53;;;;;;;24.84;43.54;97312.59;4993458;28;20042;-54
2022/05/11 09:56:19;;;;;;;4.68;3.40;;;;;;;25.14;43.43;97299.28;5019350;28;20057;-49
2022/05/11 09:58:46;;;;;;;4.60;3.45;;;;;;;25.03;42.69;97306.47;5011096;28;20049;-53
2022/05/11 10:01:26;;;;;;;4.97;3.17;;;;;;;24.88;42.41;97300.50;5004922;28;20046;-54
2022/05/11 10:04:01;;;;;;;4.90;3.70;;;;;;;25.03;41.99;97295.41;5017875;28;20774;-48
2022/05/11 10:06:54;;;;;;;4.28;3.50;;;;;;;25.16;43.16;97283.13;5017450;28;20073;-50
2022/05/11 10:09:29;;;;;;;6.55;3.90;;;;;;;25.32;40.80;97297.03;5009157;28;20535;-52
2022/05/11 10:12:06;;;;;;;4.22;3.17;;;;;;;25.16;39.11;97285.91;4997508;28;20412;-52
2022/05/11 10:23:35;;;;;;;6.78;2.63;;;;;;;25.91;38.77;97273.69;5010007;28;20056;-51
2022/05/11 10:26:09;;;;;;;6.32;2.80;;;;;;;25.70;36.46;97272.78;5002795;28;20052;-52
2022/05/11 10:28:53;;;;;;;4.70;2.67;;;;;;;25.82;36.95;97271.88;5003800;28;20060;-51
2022/05/11 10:31:31;;;;;;;4.20;2.80;;;;;;;25.78;36.36;97267.41;4998226;28;20052;-47
2022/05/11 10:34:08;;;;;;;7.03;2.58;;;;;;;25.84;37.50;97261.22;5023620;28;20112;-53
2022/05/11 10:37:06;;;;;;;4.90;2.60;;;;;;;25.92;36.83;97265.00;5008396;28;20061;-58
2022/05/11 10:39:51;;;;;;;6.38;2.83;;;;;;;25.62;36.31;97256.28;4998452;28;20056;-54
2022/05/11 10:42:35;;;;;;;3.65;2.50;;;;;;;25.48;37.44;97265.81;5004487;28;20041;-50
2022/05/11 10:45:10;;;;;;;;;;;;;;;25.30;37.45;97260.56;5004303;28;20409;-48
2022/05/11 10:47:52;;;;;;;5.65;2.60;;;;;;;25.16;36.15;97258.19;5006302;28;19932;-50
2022/05/11 10:50:40;;;;;;;4.20;2.50;;;;;;;25.07;35.24;97252.78;5003183;28;20050;-49
2022/05/11 10:53:16;;;;;;;4.30;2.53;;;;;;;25.03;35.27;97246.34;5003634;28;20046;-51
2022/05/11 10:55:56;;;;;;;3.70;2.45;;;;;;;24.92;34.50;97243.25;4994797;28;20672;-51
2022/05/11 10:58:29;;;;;;;5.30;2.50;;;;;;;24.93;35.47;97252.38;5002342;28;20112;-53
2022/05/11 11:01:10;;;;;;;6.55;2.53;;;;;;;25.07;34.86;97235.38;4992568;28;20242;-55
2022/05/11 11:03:46;;;;;;;3.45;2.33;;;;;;;25.39;34.69;97232.69;5001413;28;20144;-54
2022/05/11 11:09:36;;;;;;;4.20;2.28;;;;;;;26.18;35.88;97229.56;5000591;28;20523;-50
2022/05/11 11:12:18;;;;;;;5.90;3.50;;;;;;;26.41;35.33;97231.69;5003945;28;20046;-46
2022/05/11 11:14:50;;;;;;;4.07;2.78;;;;;;;26.43;35.97;97224.66;5003622;28;20053;-50
2022/05/11 11:17:21;;;;;;;7.55;2.80;;;;;;;26.48;33.82;97223.53;5010713;28;20563;-52
2022/05/11 11:19:52;;;;;;;4.57;2.65;;;;;;;26.49;35.08;97222.38;4998308;28;20034;-46
2022/05/11 11:22:19;;;;;;;12.70;2.90;;;;;;;26.41;34.00;97215.03;5004527;28;21377;-51
2022/05/11 11:25:14;;;;;;;4.25;2.47;;;;;;;26.50;34.02;97207.34;4994352;28;20047;-47
2022/05/11 11:27:59;;;;;;;6.75;2.50;;;;;;;26.68;33.83;97212.50;4997596;28;20096;-53
2022/05/11 11:30:26;;;;;;;5.63;3.38;;;;;;;26.74;32.97;97211.03;5001275;28;20073;-52
2022/05/11 11:33:11;;;;;;;4.50;2.67;;;;;;;26.85;33.11;97208.47;5002754;28;20049;-53
2022/05/11 11:35:53;;;;;;;3.88;2.60;;;;;;;26.70;32.02;97197.06;4992042;28;20056;-50
2022/05/11 11:38:41;;;;;;;3.15;2.35;;;;;;;26.81;32.42;97197.28;5002821;28;20040;-51
2022/05/11 11:41:15;;;;;;;8.18;2.60;;;;;;;26.84;32.84;97193.78;4998331;28;20050;-47
2022/05/11 11:43:54;;;;;;;5.07;2.40;;;;;;;26.79;33.11;97191.28;4994450;28;20050;-49
2022/05/11 11:46:38;;;;;;;3.88;2.50;;;;;;;26.82;32.45;97184.19;4992532;28;20054;-52
2022/05/11 11:49:29;;;;;;;4.25;2.70;;;;;;;26.73;33.42;97185.25;4999192;28;20049;-52
2022/05/11 11:52:28;;;;;;;;;;;;;;;26.80;32.28;97183.78;4995583;28;20054;-49
2022/05/11 11:54:54;;;;;;;4.05;2.40;;;;;;;26.75;30.55;97179.31;5002554;28;19924;-49
2022/05/11 11:57:21;;;;;;;4.78;2.50;;;;;;;27.01;31.96;97166.75;5019079;28;20100;-48
2022/05/11 11:59:57;;;;;;;5.50;2.50;;;;;;;27.06;32.59;97174.00;5012510;28;20045;-49
2022/05/11 12:02:31;;;;;;;5.50;2.67;;;;;;;27.11;31.53;97168.13;5008943;28;20045;-56
2022/05/11 12:04:57;;;;;;;6.05;2.55;;;;;;;27.11;31.71;97173.69;4998052;28;20053;-54
2022/05/11 12:16:09;;;;;;;4.60;2.25;;;;;;;27.69;29.19;97160.06;4993917;28;20939;-52
2022/05/11 12:18:39;;;;;;;6.53;2.40;;;;;;;27.88;29.00;97161.97;5008175;28;20038;-50
2022/05/11 12:21:30;;;;;;;5.65;2.28;;;;;;;28.09;28.90;97147.59;5010722;28;20045;-52
2022/05/11 12:24:01;;;;;;;6.25;2.28;;;;;;;27.96;28.89;97154.56;5000266;28;20646;-51
2022/05/11 12:26:31;;;;;;;5.18;2.75;;;;;;;28.11;29.36;97156.38;5004565;28;20539;-51
2022/05/11 12:31:56;;;;;;;72.03;8.88;;;;;;;27.67;28.93;97145.75;5000046;28;20053;-53
2022/05/11 12:34:28;;;;;;;5.07;2.53;;;;;;;28.00;29.58;97138.69;5000405;28;20525;-52
2022/05/11 12:36:56;;;;;;;4.38;2.20;;;;;;;28.07;28.74;97138.03;5007719;28;20423;-54
2022/05/11 12:39:35;;;;;;;5.20;2.42;;;;;;;27.78;28.42;97139.16;5005909;28;20448;-56